createdAt,value
2018-10-09T00:02:27.751Z,71.40
2018-10-09T00:04:55.476Z,71.40
2018-10-09T00:07:23.537Z,71.40
2018-10-09T00:09:51.495Z,71.50
2018-10-09T00:12:19.393Z,71.50
2018-10-09T00:14:47.131Z,71.50
2018-10-09T00:17:14.685Z,71.70
2018-10-09T00:19:42.218Z,71.60
2018-10-09T00:22:09.757Z,71.70
2018-10-09T00:24:37.298Z,71.70
2018-10-09T00:27:04.888Z,71.70
2018-10-09T00:29:32.418Z,71.60
2018-10-09T00:31:59.965Z,71.70
2018-10-09T00:34:27.693Z,71.70
2018-10-09T00:36:55.327Z,71.70
2018-10-09T00:39:23.215Z,71.70
2018-10-09T00:41:50.942Z,71.80
2018-10-09T00:44:18.672Z,71.70
2018-10-09T00:46:46.228Z,71.80
2018-10-09T00:49:14.035Z,71.80
2018-10-09T00:51:41.586Z,72.00
2018-10-09T00:54:09.147Z,72.00
2018-10-09T00:56:36.708Z,72.00
2018-10-09T00:59:04.268Z,72.00
2018-10-09T01:01:31.844Z,72.20
2018-10-09T01:03:59.409Z,73.00
2018-10-09T01:06:26.981Z,72.20
2018-10-09T01:08:54.620Z,71.90
2018-10-09T01:11:22.338Z,72.30
2018-10-09T01:13:49.973Z,72.40
2018-10-09T01:16:17.693Z,73.10
2018-10-09T01:18:45.252Z,72.30
2018-10-09T01:21:12.832Z,72.40
2018-10-09T01:23:40.395Z,72.40
2018-10-09T01:26:08.188Z,72.50
2018-10-09T01:28:35.744Z,72.50
2018-10-09T01:31:03.342Z,72.70
2018-10-09T01:33:30.916Z,72.50
2018-10-09T01:35:58.450Z,72.50
2018-10-09T01:38:26.176Z,72.50
2018-10-09T01:40:54.008Z,73.20
2018-10-09T01:43:21.780Z,72.70
2018-10-09T01:45:49.697Z,72.60
2018-10-09T01:48:17.551Z,72.60
2018-10-09T01:50:45.334Z,72.40
2018-10-09T01:53:13.164Z,72.50
2018-10-09T01:55:40.862Z,72.50
2018-10-09T01:58:08.387Z,72.40
2018-10-09T02:00:35.967Z,72.40
2018-10-09T02:03:03.525Z,72.50
2018-10-09T02:05:31.089Z,72.50
2018-10-09T02:07:58.879Z,72.40
2018-10-09T02:10:26.496Z,72.50
2018-10-09T02:12:54.359Z,72.60
2018-10-09T02:15:22.119Z,73.20
2018-10-09T02:17:50.037Z,73.10
2018-10-09T02:20:17.909Z,72.40
2018-10-09T02:22:45.508Z,72.50
2018-10-09T02:25:13.312Z,72.50
2018-10-09T02:27:40.931Z,72.50
2018-10-09T02:30:09.009Z,72.40
2018-10-09T02:32:36.571Z,72.40
2018-10-09T02:35:04.104Z,72.40
2018-10-09T02:37:31.706Z,72.50
2018-10-09T02:39:59.238Z,72.40
2018-10-09T02:42:26.916Z,72.50
2018-10-09T02:44:54.573Z,72.40
2018-10-09T02:47:22.376Z,72.50
2018-10-09T02:49:50.556Z,72.50
2018-10-09T02:52:18.580Z,72.60
2018-10-09T02:54:46.201Z,72.50
2018-10-09T02:57:13.730Z,72.60
2018-10-09T02:59:41.488Z,72.50
2018-10-09T03:02:09.145Z,72.80
2018-10-09T03:04:36.668Z,72.50
2018-10-09T03:07:04.211Z,72.50
2018-10-09T03:09:31.762Z,72.50
2018-10-09T03:11:59.287Z,72.50
2018-10-09T03:14:26.895Z,72.50
2018-10-09T03:16:54.620Z,72.70
2018-10-09T03:19:22.390Z,72.50
2018-10-09T03:21:50.301Z,72.80
2018-10-09T03:24:18.070Z,72.50
2018-10-09T03:26:45.660Z,72.60
2018-10-09T03:29:13.187Z,72.60
2018-10-09T03:31:40.840Z,72.50
2018-10-09T03:34:08.708Z,72.80
2018-10-09T03:36:36.268Z,72.50
2018-10-09T03:39:04.766Z,72.60
2018-10-09T03:41:32.349Z,72.60
2018-10-09T03:43:59.874Z,72.70
2018-10-09T03:46:27.545Z,72.70
2018-10-09T03:48:55.273Z,72.70
2018-10-09T03:51:23.114Z,72.70
2018-10-09T03:53:50.943Z,72.70
2018-10-09T03:56:18.973Z,72.80
2018-10-09T03:58:46.726Z,73.10
2018-10-09T04:01:14.260Z,72.80
2018-10-09T04:03:41.801Z,72.90
2018-10-09T04:06:09.612Z,73.00
2018-10-09T04:08:40.367Z,72.60
2018-10-09T04:11:08.020Z,72.50
2018-10-09T04:13:35.624Z,72.50
2018-10-09T04:16:03.195Z,72.50
2018-10-09T04:18:30.747Z,72.40
2018-10-09T04:20:58.559Z,72.40
2018-10-09T04:23:26.186Z,72.40
2018-10-09T04:25:53.990Z,72.30
2018-10-09T04:28:21.793Z,72.30
2018-10-09T04:30:49.608Z,72.20
2018-10-09T04:33:17.452Z,72.20
2018-10-09T04:35:45.090Z,72.20
2018-10-09T04:38:12.607Z,72.20
2018-10-09T04:40:40.184Z,72.10
2018-10-09T04:43:08.698Z,72.20
2018-10-09T04:45:36.277Z,72.20
2018-10-09T04:48:03.758Z,72.20
2018-10-09T04:50:31.502Z,72.20
2018-10-09T04:52:59.394Z,72.20
2018-10-09T04:55:27.952Z,72.20
2018-10-09T04:57:55.742Z,72.10
2018-10-09T05:00:23.531Z,72.10
2018-10-09T05:02:51.428Z,72.10
2018-10-09T05:05:19.160Z,72.10
2018-10-09T05:07:47.191Z,72.00
2018-10-09T05:10:14.799Z,72.00
2018-10-09T05:12:42.412Z,71.90
2018-10-09T05:15:10.100Z,71.80
2018-10-09T05:17:38.370Z,71.90
2018-10-09T05:20:06.671Z,72.00
2018-10-09T05:22:34.254Z,71.90
2018-10-09T05:25:01.814Z,71.80
2018-10-09T05:27:29.443Z,71.80
2018-10-09T05:29:57.182Z,71.70
2018-10-09T05:32:25.132Z,71.70
2018-10-09T05:34:53.029Z,71.80
2018-10-09T05:37:21.024Z,71.80
2018-10-09T05:39:49.358Z,71.80
2018-10-09T05:42:17.198Z,72.60
2018-10-09T05:44:44.864Z,71.80
2018-10-09T05:47:13.244Z,72.50
2018-10-09T05:49:40.924Z,71.80
2018-10-09T05:52:08.687Z,71.80
2018-10-09T05:54:38.092Z,71.80
2018-10-09T05:57:06.031Z,71.90
2018-10-09T05:59:33.887Z,71.80
2018-10-09T06:02:01.448Z,71.80
2018-10-09T06:04:29.173Z,71.80
2018-10-09T06:06:57.281Z,71.80
2018-10-09T06:09:25.229Z,71.90
2018-10-09T06:11:52.940Z,71.70
2018-10-09T06:14:20.895Z,71.80
2018-10-09T06:16:48.856Z,71.70
2018-10-09T06:19:16.443Z,71.40
2018-10-09T06:21:44.069Z,71.30
2018-10-09T06:24:11.615Z,71.30
2018-10-09T06:26:39.380Z,71.20
2018-10-09T06:29:06.955Z,71.10
2018-10-09T06:31:34.507Z,71.00
2018-10-09T06:34:02.308Z,70.90
2018-10-09T06:36:29.965Z,70.80
2018-10-09T06:38:57.515Z,70.80
2018-10-09T06:41:25.325Z,70.60
2018-10-09T06:43:53.040Z,70.50
2018-10-09T06:46:20.954Z,70.40
2018-10-09T06:48:50.023Z,70.40
2018-10-09T06:51:18.209Z,70.30
2018-10-09T06:53:46.003Z,70.20
2018-10-09T06:56:13.581Z,70.10
2018-10-09T06:58:41.156Z,70.10
2018-10-09T07:01:08.968Z,70.00
2018-10-09T07:03:36.700Z,69.90
2018-10-09T07:06:04.692Z,69.80
2018-10-09T07:08:32.237Z,69.70
2018-10-09T07:10:59.826Z,69.70
2018-10-09T07:13:27.875Z,69.60
2018-10-09T07:15:55.886Z,69.60
2018-10-09T07:18:23.738Z,69.50
2018-10-09T07:20:51.383Z,69.40
2018-10-09T07:23:19.287Z,69.40
2018-10-09T07:25:47.063Z,69.40
2018-10-09T07:28:14.677Z,69.40
2018-10-09T07:30:42.336Z,69.30
2018-10-09T07:33:10.023Z,69.20
2018-10-09T07:35:37.594Z,69.10
2018-10-09T07:38:05.340Z,69.20
2018-10-09T07:40:32.930Z,69.00
2018-10-09T07:43:00.513Z,69.00
2018-10-09T07:45:28.130Z,69.00
2018-10-09T07:47:55.980Z,68.90
2018-10-09T07:50:23.771Z,68.80
2018-10-09T07:52:51.684Z,68.70
2018-10-09T07:55:19.626Z,68.80
2018-10-09T07:57:47.522Z,68.60
2018-10-09T08:00:15.147Z,68.60
2018-10-09T08:02:42.753Z,68.60
2018-10-09T08:05:10.500Z,68.60
2018-10-09T08:07:38.152Z,68.50
2018-10-09T08:10:06.170Z,68.50
2018-10-09T08:12:33.747Z,68.50
2018-10-09T08:15:01.338Z,68.50
2018-10-09T08:17:28.931Z,68.40
2018-10-09T08:19:56.807Z,68.40
2018-10-09T08:22:24.776Z,68.30
2018-10-09T08:24:52.639Z,68.30
2018-10-09T08:27:20.549Z,68.20
2018-10-09T08:29:48.537Z,68.10
2018-10-09T08:32:16.243Z,68.20
2018-10-09T08:34:43.795Z,68.90
2018-10-09T08:37:11.811Z,68.10
2018-10-09T08:39:39.479Z,68.70
2018-10-09T08:42:07.011Z,68.10
2018-10-09T08:44:34.655Z,68.80
2018-10-09T08:47:02.240Z,67.90
2018-10-09T08:49:29.792Z,67.90
2018-10-09T08:51:57.426Z,68.10
2018-10-09T08:54:25.219Z,67.90
2018-10-09T08:56:52.872Z,67.80
2018-10-09T08:59:21.402Z,67.80
2018-10-09T09:01:49.163Z,67.70
2018-10-09T09:04:17.403Z,67.70
2018-10-09T09:06:46.026Z,67.60
2018-10-09T09:09:13.797Z,67.60
2018-10-09T09:11:41.889Z,67.50
2018-10-09T09:14:09.646Z,67.50
2018-10-09T09:16:37.487Z,67.50
2018-10-09T09:19:05.070Z,67.60
2018-10-09T09:21:32.684Z,67.50
2018-10-09T09:24:00.534Z,67.40
2018-10-09T09:26:28.174Z,68.10
2018-10-09T09:28:55.740Z,67.40
2018-10-09T09:31:23.762Z,68.10
2018-10-09T09:33:51.610Z,67.40
2018-10-09T09:36:19.407Z,67.40
2018-10-09T09:38:47.221Z,67.20
2018-10-09T09:41:14.827Z,67.30
2018-10-09T09:43:42.566Z,67.20
2018-10-09T09:46:10.140Z,67.10
2018-10-09T09:48:37.722Z,67.10
2018-10-09T09:51:05.293Z,67.10
2018-10-09T09:53:32.833Z,67.10
2018-10-09T09:56:00.429Z,67.10
2018-10-09T09:58:28.346Z,67.00
2018-10-09T10:00:57.718Z,67.00
2018-10-09T10:03:26.309Z,67.00
2018-10-09T10:05:54.164Z,67.00
2018-10-09T10:08:21.976Z,67.00
2018-10-09T10:10:49.608Z,67.00
2018-10-09T10:13:17.281Z,66.90
2018-10-09T10:15:44.916Z,66.90
2018-10-09T10:18:12.548Z,67.00
2018-10-09T10:20:40.208Z,66.90
2018-10-09T10:23:07.770Z,66.80
2018-10-09T10:25:35.357Z,66.80
2018-10-09T10:28:02.934Z,66.80
2018-10-09T10:30:30.530Z,66.80
2018-10-09T10:32:58.110Z,66.80
2018-10-09T10:35:25.767Z,66.80
2018-10-09T10:37:53.458Z,66.80
2018-10-09T10:40:21.312Z,66.80
2018-10-09T10:42:49.039Z,66.80
2018-10-09T10:45:16.718Z,66.80
2018-10-09T10:47:44.367Z,66.70
2018-10-09T10:50:12.397Z,66.60
2018-10-09T10:52:40.247Z,66.70
2018-10-09T10:55:08.002Z,66.60
2018-10-09T10:57:35.463Z,66.70
2018-10-09T11:00:03.163Z,66.70
2018-10-09T11:02:31.058Z,66.70
2018-10-09T11:04:58.587Z,66.60
2018-10-09T11:07:26.346Z,66.70
2018-10-09T11:09:54.135Z,66.60
2018-10-09T11:12:22.090Z,66.60
2018-10-09T11:14:50.110Z,66.50
2018-10-09T11:17:18.310Z,66.50
2018-10-09T11:19:46.193Z,66.50
2018-10-09T11:22:13.965Z,66.50
2018-10-09T11:24:41.615Z,66.50
2018-10-09T11:27:09.224Z,66.50
2018-10-09T11:29:37.865Z,66.50
2018-10-09T11:32:05.491Z,66.50
2018-10-09T11:34:33.075Z,66.50
2018-10-09T11:37:00.764Z,66.40
2018-10-09T11:39:28.348Z,66.40
2018-10-09T11:41:56.067Z,66.40
2018-10-09T11:44:23.722Z,66.30
2018-10-09T11:46:51.692Z,66.20
2018-10-09T11:49:20.000Z,66.30
2018-10-09T11:51:47.907Z,66.30
2018-10-09T11:54:15.472Z,66.30
2018-10-09T11:56:43.110Z,66.10
2018-10-09T11:59:10.974Z,66.10
2018-10-09T12:01:38.543Z,66.10
2018-10-09T12:04:06.124Z,66.00
2018-10-09T12:06:33.759Z,66.10
2018-10-09T12:09:01.375Z,66.10
2018-10-09T12:11:28.953Z,66.00
2018-10-09T12:13:56.644Z,66.00
2018-10-09T12:16:24.495Z,66.00
2018-10-09T12:18:53.301Z,65.90
2018-10-09T12:21:22.195Z,65.90
2018-10-09T12:23:50.098Z,65.90
2018-10-09T12:26:17.942Z,65.80
2018-10-09T12:28:45.724Z,65.70
2018-10-09T12:31:13.471Z,65.80
2018-10-09T12:33:41.221Z,65.80
2018-10-09T12:36:08.776Z,65.80
2018-10-09T12:38:36.335Z,65.80
2018-10-09T12:41:03.897Z,65.90
2018-10-09T12:43:31.429Z,65.90
2018-10-09T12:45:58.989Z,65.80
2018-10-09T12:48:26.884Z,66.00
2018-10-09T12:50:54.650Z,66.70
2018-10-09T12:53:22.662Z,66.00
2018-10-09T12:55:50.511Z,66.00
2018-10-09T12:58:18.361Z,66.00
2018-10-09T13:00:45.948Z,66.00
2018-10-09T13:03:13.778Z,66.00
2018-10-09T13:05:41.462Z,65.90
2018-10-09T13:08:09.036Z,65.80
2018-10-09T13:10:36.687Z,65.80
2018-10-09T13:13:04.239Z,65.70
2018-10-09T13:15:31.883Z,65.60
2018-10-09T13:17:59.710Z,65.50
2018-10-09T13:20:27.626Z,65.60
2018-10-09T13:22:55.488Z,65.70
2018-10-09T13:25:23.235Z,65.70
2018-10-09T13:27:51.191Z,65.70
2018-10-09T13:30:18.986Z,65.70
2018-10-09T13:32:46.641Z,65.70
2018-10-09T13:35:14.175Z,65.70
2018-10-09T13:37:41.766Z,65.70
2018-10-09T13:40:09.360Z,65.80
2018-10-09T13:42:36.924Z,65.70
2018-10-09T13:45:04.610Z,65.70
2018-10-09T13:47:32.259Z,65.70
2018-10-09T13:49:59.752Z,65.80
2018-10-09T13:52:27.325Z,65.60
2018-10-09T13:54:54.990Z,65.40
2018-10-09T13:57:23.016Z,65.40
2018-10-09T13:59:50.624Z,65.10
2018-10-09T14:02:18.530Z,66.10
2018-10-09T14:04:46.119Z,65.40
2018-10-09T14:07:13.830Z,65.40
2018-10-09T14:09:41.516Z,65.40
2018-10-09T14:12:09.124Z,65.40
2018-10-09T14:14:36.875Z,65.50
2018-10-09T14:17:04.441Z,65.60
2018-10-09T14:19:32.005Z,65.60
2018-10-09T14:21:59.568Z,65.50
2018-10-09T14:24:27.280Z,65.50
2018-10-09T14:26:54.890Z,65.50
2018-10-09T14:29:22.675Z,65.50
2018-10-09T14:31:51.726Z,65.40
2018-10-09T14:34:19.773Z,65.40
2018-10-09T14:36:47.999Z,65.30
2018-10-09T14:39:15.545Z,65.30
2018-10-09T14:41:43.248Z,65.30
2018-10-09T14:44:10.902Z,65.40
2018-10-09T14:46:38.450Z,65.40
2018-10-09T14:49:05.996Z,65.30
2018-10-09T14:51:33.584Z,65.20
2018-10-09T14:54:01.497Z,65.20
2018-10-09T14:56:29.038Z,65.30
2018-10-09T14:58:56.629Z,65.20
2018-10-09T15:01:24.411Z,65.20
2018-10-09T15:03:52.140Z,65.20
2018-10-09T15:06:19.918Z,65.30
2018-10-09T15:08:47.577Z,65.30
2018-10-09T15:11:15.192Z,65.30
2018-10-09T15:13:42.748Z,66.00
2018-10-09T15:16:10.319Z,65.20
2018-10-09T15:18:37.876Z,65.20
2018-10-09T15:21:05.437Z,65.20
2018-10-09T15:23:33.060Z,65.20
2018-10-09T15:26:00.621Z,65.20
2018-10-09T15:28:28.392Z,65.20
2018-10-09T15:30:56.182Z,65.20
2018-10-09T15:33:27.262Z,65.30
2018-10-09T15:35:55.036Z,65.20
2018-10-09T15:38:22.736Z,65.20
2018-10-09T15:40:50.444Z,65.30
2018-10-09T15:43:18.336Z,65.30
2018-10-09T15:45:45.946Z,65.30
2018-10-09T15:48:13.574Z,65.20
2018-10-09T15:50:41.183Z,65.10
2018-10-09T15:53:08.849Z,65.00
2018-10-09T15:55:36.412Z,65.10
2018-10-09T15:58:04.000Z,65.10
2018-10-09T16:00:36.779Z,65.50
2018-10-09T16:03:04.488Z,65.00
2018-10-09T16:05:32.153Z,65.10
2018-10-09T16:07:59.729Z,65.00
2018-10-09T16:10:27.832Z,65.00
2018-10-09T16:12:55.685Z,65.00
2018-10-09T16:15:23.414Z,65.00
2018-10-09T16:17:51.465Z,65.10
2018-10-09T16:20:19.433Z,65.10
2018-10-09T16:22:47.037Z,65.10
2018-10-09T16:25:14.991Z,65.10
2018-10-09T16:27:42.825Z,65.20
2018-10-09T16:30:10.570Z,65.20
2018-10-09T16:32:38.227Z,65.20
2018-10-09T16:35:05.824Z,65.20
2018-10-09T16:37:33.526Z,65.30
2018-10-09T16:40:01.164Z,65.30
2018-10-09T16:42:28.859Z,65.30
2018-10-09T16:44:56.470Z,65.20
2018-10-09T16:47:24.387Z,66.00
2018-10-09T16:49:52.254Z,65.30
2018-10-09T16:52:20.090Z,65.30
2018-10-09T16:54:47.849Z,65.30
2018-10-09T16:57:15.493Z,65.20
2018-10-09T16:59:43.098Z,65.30
2018-10-09T17:02:10.686Z,65.20
2018-10-09T17:04:38.420Z,65.20
2018-10-09T17:07:05.995Z,65.10
2018-10-09T17:09:33.893Z,65.30
2018-10-09T17:12:01.628Z,65.40
2018-10-09T17:14:29.362Z,65.40
2018-10-09T17:16:56.944Z,65.50
2018-10-09T17:19:24.720Z,65.60
2018-10-09T17:21:52.893Z,65.70
2018-10-09T17:24:20.686Z,65.70
2018-10-09T17:26:48.639Z,65.70
2018-10-09T17:29:16.205Z,65.80
2018-10-09T17:31:43.776Z,65.50
2018-10-09T17:34:11.373Z,65.40
2018-10-09T17:36:39.022Z,65.20
2018-10-09T17:39:07.681Z,65.10
2018-10-09T17:41:35.269Z,65.50
2018-10-09T17:44:02.924Z,65.30
2018-10-09T17:46:30.599Z,65.20
2018-10-09T17:48:58.650Z,65.40
2018-10-09T17:51:26.338Z,65.50
2018-10-09T17:53:56.021Z,65.40
2018-10-09T17:56:23.777Z,65.50
2018-10-09T17:58:51.726Z,65.40
2018-10-09T18:01:19.584Z,65.40
2018-10-09T18:03:47.253Z,65.60
2018-10-09T18:06:14.886Z,65.50
2018-10-09T18:08:42.780Z,65.50
2018-10-09T18:11:10.584Z,65.60
2018-10-09T18:13:38.142Z,65.70
2018-10-09T18:16:06.115Z,65.60
2018-10-09T18:18:33.758Z,65.60
2018-10-09T18:21:01.357Z,65.70
2018-10-09T18:23:28.907Z,65.70
2018-10-09T18:25:56.616Z,65.70
2018-10-09T18:28:24.551Z,65.80
2018-10-09T18:30:52.499Z,65.80
2018-10-09T18:33:20.610Z,65.80
2018-10-09T18:35:49.286Z,65.90
2018-10-09T18:38:17.015Z,65.90
2018-10-09T18:40:44.727Z,66.00
2018-10-09T18:43:12.364Z,66.00
2018-10-09T18:45:39.961Z,66.00
2018-10-09T18:48:07.887Z,66.00
2018-10-09T18:53:17.692Z,66.10
2018-10-09T18:55:45.240Z,65.80
2018-10-09T18:58:16.478Z,66.30
2018-10-09T19:00:43.965Z,66.00
2018-10-09T19:03:11.429Z,66.00
2018-10-09T19:05:38.873Z,66.00
2018-10-09T19:08:11.881Z,66.10
2018-10-09T19:10:39.396Z,66.10
2018-10-09T19:13:06.972Z,66.30
2018-10-09T19:15:35.489Z,66.20
2018-10-09T19:18:05.432Z,66.30
2018-10-09T19:20:32.905Z,66.40
2018-10-09T19:23:00.572Z,66.40
2018-10-09T19:25:28.036Z,66.40
2018-10-09T19:27:56.172Z,66.50
2018-10-09T19:30:23.640Z,66.50
2018-10-09T19:32:51.167Z,66.70
2018-10-09T19:35:18.564Z,66.60
2018-10-09T19:37:46.019Z,66.70
2018-10-09T19:40:13.495Z,66.70
2018-10-09T19:42:41.040Z,66.70
2018-10-09T19:45:08.562Z,66.80
2018-10-09T19:47:37.737Z,66.80
2018-10-09T19:50:06.464Z,66.90
2018-10-09T19:52:34.222Z,67.00
2018-10-09T19:55:01.693Z,67.00
2018-10-09T19:57:29.225Z,67.10
2018-10-09T19:59:56.694Z,67.10
2018-10-09T20:02:24.172Z,67.10
2018-10-09T20:04:53.096Z,67.10
2018-10-09T20:07:20.581Z,67.20
2018-10-09T20:09:48.107Z,67.20
2018-10-09T20:12:15.688Z,67.10
2018-10-09T20:14:43.172Z,67.40
2018-10-09T20:17:11.367Z,67.20
2018-10-09T20:19:39.505Z,67.30
2018-10-09T20:22:08.987Z,67.40
2018-10-09T20:24:36.586Z,67.50
2018-10-09T20:27:04.544Z,67.50
2018-10-09T20:29:32.613Z,67.50
2018-10-09T20:32:00.863Z,68.20
2018-10-09T20:34:28.904Z,67.50
2018-10-09T20:36:56.364Z,67.60
2018-10-09T20:39:24.943Z,67.60
2018-10-09T20:44:39.337Z,67.70
2018-10-09T20:47:06.780Z,67.80
2018-10-09T20:49:34.256Z,68.00
2018-10-09T20:52:01.733Z,67.90
2018-10-09T20:54:34.540Z,68.00
2018-10-09T20:57:01.989Z,68.00
2018-10-09T20:59:29.449Z,68.00
2018-10-09T21:01:57.077Z,68.00
2018-10-09T21:04:24.741Z,68.10
2018-10-09T21:06:53.514Z,68.10
2018-10-09T21:09:21.741Z,68.10
2018-10-09T21:11:49.203Z,68.20
2018-10-09T21:14:17.887Z,68.30
2018-10-09T21:16:45.399Z,68.30
2018-10-09T21:19:16.630Z,68.40
2018-10-09T21:21:44.105Z,68.40
2018-10-09T21:24:12.403Z,68.40
2018-10-09T21:26:40.548Z,68.40
2018-10-09T21:29:08.024Z,68.50
2018-10-09T21:31:35.572Z,68.50
2018-10-09T21:34:04.114Z,68.60
2018-10-09T21:36:31.862Z,68.70
2018-10-09T21:38:59.264Z,68.60
2018-10-09T21:41:26.724Z,68.70
2018-10-09T21:43:58.984Z,68.80
2018-10-09T21:46:26.465Z,68.80
2018-10-09T21:48:53.928Z,68.80
2018-10-09T21:51:21.782Z,68.90
2018-10-09T21:53:49.664Z,69.00
2018-10-09T21:56:17.362Z,69.00
2018-10-09T21:58:44.941Z,69.10
2018-10-09T22:01:13.114Z,69.20
2018-10-09T22:03:41.207Z,69.20
2018-10-09T22:06:09.264Z,69.30
2018-10-09T22:08:36.871Z,69.40
2018-10-09T22:11:04.449Z,69.60
2018-10-09T22:13:32.025Z,69.80
2018-10-09T22:15:59.608Z,69.60
2018-10-09T22:18:27.152Z,69.70
2018-10-09T22:20:54.928Z,69.80
2018-10-09T22:23:22.773Z,69.90
2018-10-09T22:25:50.644Z,70.00
2018-10-09T22:28:18.583Z,70.00
2018-10-09T22:30:46.248Z,70.10
2018-10-09T22:33:13.775Z,70.20
2018-10-09T22:35:41.375Z,70.40
2018-10-09T22:38:08.996Z,70.40
2018-10-09T22:40:36.532Z,70.40
2018-10-09T22:43:04.109Z,70.60
2018-10-09T22:45:31.641Z,70.70
2018-10-09T22:47:59.176Z,70.70
2018-10-09T22:50:26.760Z,70.70
2018-10-09T22:52:54.418Z,70.70
2018-10-09T22:55:22.099Z,70.80
2018-10-09T22:57:49.866Z,70.70
2018-10-09T23:00:17.489Z,70.80
2018-10-09T23:02:45.079Z,70.80
2018-10-09T23:05:12.700Z,70.90
2018-10-09T23:07:40.688Z,71.10
2018-10-09T23:10:08.299Z,71.00
2018-10-09T23:12:35.900Z,71.00
2018-10-09T23:15:03.496Z,71.10
2018-10-09T23:17:31.075Z,71.90
2018-10-09T23:19:58.618Z,71.10
2018-10-09T23:22:26.200Z,71.20
2018-10-09T23:24:53.965Z,71.30
2018-10-09T23:27:21.909Z,71.50
2018-10-09T23:29:49.658Z,71.50
2018-10-09T23:32:17.444Z,71.40
2018-10-09T23:34:45.001Z,71.50
2018-10-09T23:37:12.602Z,71.50
2018-10-09T23:39:40.222Z,71.50
2018-10-09T23:42:07.728Z,71.60
2018-10-09T23:44:35.344Z,71.60
2018-10-09T23:47:02.902Z,71.80
2018-10-09T23:49:30.459Z,71.80
2018-10-09T23:51:58.020Z,71.90
2018-10-09T23:54:25.604Z,71.90
2018-10-09T23:56:53.320Z,71.90
2018-10-09T23:59:21.268Z,71.70
